Time;durP1;ratioP1;P1;durP2;ratioP2;P2;SDS_P1;SDS_P2;PMS_P1;PMS_P2;Temp;Humidity;BMP_temperature;BMP_pressure;BME280_temperature;BME280_humidity;BME280_pressure;Samples;Min_cycle;Max_cycle;Signal;HPM_P1;HPM_P2
2021/07/09 00:01:59;;;;;;;8.23;7.43;;;17.70;99.90;;;;;;5033773;28;20794;-73
2021/07/09 00:04:26;;;;;;;12.83;8.57;;;17.70;99.90;;;;;;5050067;28;20464;-73
2021/07/09 00:06:52;;;;;;;9.10;8.30;;;17.70;99.90;;;;;;5053558;28;20663;-73
2021/07/09 00:09:18;;;;;;;8.00;7.30;;;17.80;99.90;;;;;;5052907;28;20424;-74
2021/07/09 00:11:46;;;;;;;8.57;7.43;;;17.80;99.90;;;;;;5053333;28;21191;-74
2021/07/09 00:14:13;;;;;;;9.60;8.70;;;17.90;99.90;;;;;;5051503;28;21020;-74
2021/07/09 00:16:41;;;;;;;9.07;8.17;;;17.80;99.90;;;;;;5051833;28;20455;-74
2021/07/09 00:19:07;;;;;;;8.27;7.40;;;17.70;99.90;;;;;;5051236;28;20519;-74
2021/07/09 00:21:34;;;;;;;9.83;8.60;;;17.80;99.90;;;;;;5042578;28;20456;-73
2021/07/09 00:24:02;;;;;;;10.10;8.57;;;17.80;99.90;;;;;;5034202;28;20467;-72
2021/07/09 00:26:29;;;;;;;8.47;7.00;;;17.80;99.90;;;;;;5033068;28;20425;-73
2021/07/09 00:28:55;;;;;;;8.90;8.00;;;17.90;99.90;;;;;;5033294;28;20398;-73
2021/07/09 00:31:20;;;;;;;8.63;7.73;;;17.90;99.90;;;;;;5033141;28;20740;-74
2021/07/09 00:33:46;;;;;;;8.63;7.83;;;17.90;99.90;;;;;;5032569;28;20191;-73
2021/07/09 00:36:12;;;;;;;9.87;7.60;;;17.90;99.90;;;;;;5034292;28;20194;-73
2021/07/09 00:38:37;;;;;;;12.27;9.67;;;18.00;99.90;;;;;;5033061;28;20175;-73
2021/07/09 00:41:03;;;;;;;9.93;8.93;;;17.90;99.90;;;;;;5033421;28;20489;-73
2021/07/09 00:43:29;;;;;;;11.37;10.17;;;17.70;99.90;;;;;;5034424;28;20178;-73
2021/07/09 00:45:54;;;;;;;10.80;9.77;;;17.60;99.90;;;;;;5038105;28;20553;-73
2021/07/09 00:48:20;;;;;;;12.30;10.83;;;17.50;99.90;;;;;;5036829;28;20532;-73
2021/07/09 00:50:46;;;;;;;11.17;10.07;;;17.50;99.90;;;;;;5035935;28;20592;-73
2021/07/09 00:53:12;;;;;;;10.87;8.50;;;17.50;99.90;;;;;;5036735;28;20175;-74
2021/07/09 00:55:37;;;;;;;15.70;9.40;;;17.60;99.90;;;;;;5037460;28;20430;-73
2021/07/09 00:58:04;;;;;;;11.50;9.90;;;17.70;99.90;;;;;;5037348;28;20555;-73
2021/07/09 01:00:31;;;;;;;10.07;9.07;;;17.70;99.90;;;;;;5036754;28;20175;-74
2021/07/09 01:02:57;;;;;;;10.50;9.50;;;17.80;99.90;;;;;;5036512;28;20448;-74
2021/07/09 01:05:23;;;;;;;9.50;8.60;;;17.80;99.90;;;;;;5036992;28;20484;-74
2021/07/09 01:07:49;;;;;;;12.43;10.77;;;17.70;99.90;;;;;;5037989;28;20416;-73
2021/07/09 01:10:17;;;;;;;11.70;9.63;;;17.70;99.90;;;;;;5036585;28;20397;-73
2021/07/09 01:12:44;;;;;;;11.27;10.10;;;17.60;99.90;;;;;;5036469;28;20405;-74
2021/07/09 01:15:13;;;;;;;11.93;10.73;;;17.50;99.90;;;;;;5035233;28;20452;-74
2021/07/09 01:17:39;;;;;;;12.47;10.80;;;17.50;99.90;;;;;;5037687;28;20445;-74
2021/07/09 01:20:08;;;;;;;13.97;12.43;;;17.40;99.90;;;;;;5036384;28;20552;-74
2021/07/09 01:22:37;;;;;;;12.83;11.40;;;17.30;99.90;;;;;;5036058;28;20406;-74
2021/07/09 01:25:08;;;;;;;12.17;10.70;;;17.30;99.90;;;;;;5036402;28;20540;-73
2021/07/09 01:27:35;;;;;;;11.93;10.60;;;17.30;99.90;;;;;;5036694;28;20461;-73
2021/07/09 01:30:03;;;;;;;11.60;10.40;;;17.30;99.90;;;;;;5037087;28;20422;-73
2021/07/09 01:32:29;;;;;;;11.63;10.27;;;17.40;99.90;;;;;;5036030;28;20514;-73
2021/07/09 01:34:54;;;;;;;11.37;10.17;;;17.50;99.90;;;;;;5036128;28;20442;-73
2021/07/09 01:37:20;;;;;;;11.57;10.27;;;17.50;99.90;;;;;;5036000;28;20194;-73
2021/07/09 01:39:45;;;;;;;11.13;9.50;;;17.60;99.90;;;;;;5039381;28;20190;-74
2021/07/09 01:42:12;;;;;;;10.57;9.17;;;17.60;99.90;;;;;;5036596;28;20171;-74
2021/07/09 01:44:38;;;;;;;11.70;9.50;;;17.70;99.90;;;;;;5035843;28;20206;-74
2021/07/09 01:47:05;;;;;;;11.57;10.37;;;17.70;99.90;;;;;;5035783;28;20432;-73
2021/07/09 01:49:31;;;;;;;11.77;10.13;;;17.70;99.90;;;;;;5036942;28;20420;-74
2021/07/09 01:51:57;;;;;;;10.80;9.27;;;17.80;99.90;;;;;;5035879;28;20417;-73
2021/07/09 01:54:23;;;;;;;11.33;10.00;;;17.80;99.90;;;;;;5035105;28;20831;-73
2021/07/09 01:56:49;;;;;;;12.30;9.80;;;17.80;99.90;;;;;;5035317;28;20190;-74
2021/07/09 01:59:14;;;;;;;14.90;11.60;;;17.80;99.90;;;;;;5034461;28;20418;-73
2021/07/09 02:01:40;;;;;;;14.03;11.43;;;17.80;99.90;;;;;;5051809;28;20181;-73
2021/07/09 02:04:05;;;;;;;11.70;10.47;;;17.80;99.90;;;;;;5055563;28;20271;-73
2021/07/09 02:06:31;;;;;;;11.53;10.27;;;17.80;99.90;;;;;;5055591;28;20186;-73
2021/07/09 02:08:56;;;;;;;14.17;11.73;;;17.80;99.90;;;;;;5055411;28;20170;-73
2021/07/09 02:11:22;;;;;;;12.57;11.10;;;17.80;99.90;;;;;;5053841;28;20212;-73
2021/07/09 02:13:48;;;;;;;13.23;11.83;;;17.80;99.90;;;;;;5055185;28;20174;-73
2021/07/09 02:16:13;;;;;;;12.73;11.37;;;17.70;99.90;;;;;;5055287;28;20226;-73
2021/07/09 02:18:39;;;;;;;13.80;12.00;;;17.70;99.90;;;;;;5055407;28;20214;-73
2021/07/09 02:21:04;;;;;;;12.60;11.30;;;17.50;99.90;;;;;;5053816;28;20174;-73
2021/07/09 02:23:30;;;;;;;16.20;13.10;;;17.50;99.90;;;;;;5055018;28;20186;-73
2021/07/09 02:25:56;;;;;;;14.50;12.87;;;17.50;99.90;;;;;;5054761;28;20206;-73
2021/07/09 02:28:21;;;;;;;15.63;13.40;;;17.40;99.90;;;;;;5055310;28;20666;-73
2021/07/09 02:30:47;;;;;;;14.80;13.30;;;17.40;99.90;;;;;;5055478;28;20175;-73
2021/07/09 02:33:13;;;;;;;13.33;11.80;;;17.40;99.90;;;;;;5053171;28;20271;-73
2021/07/09 02:35:40;;;;;;;15.27;13.67;;;17.50;99.90;;;;;;5055025;28;20195;-73
2021/07/09 02:38:09;;;;;;;16.23;13.37;;;17.50;99.90;;;;;;5055017;28;20536;-73
2021/07/09 02:40:35;;;;;;;14.60;13.10;;;17.60;99.90;;;;;;5054901;28;20417;-73
2021/07/09 02:43:03;;;;;;;16.23;14.40;;;17.60;99.90;;;;;;5053022;28;20447;-73
2021/07/09 02:45:29;;;;;;;17.20;13.97;;;17.60;99.90;;;;;;5054466;28;20517;-73
2021/07/09 02:47:55;;;;;;;18.30;15.47;;;17.60;99.90;;;;;;5054936;28;20413;-73
2021/07/09 02:50:23;;;;;;;19.43;15.63;;;17.50;99.90;;;;;;5054883;28;20166;-73
2021/07/09 02:52:50;;;;;;;21.50;17.17;;;17.40;99.90;;;;;;5052780;28;20825;-73
2021/07/09 02:55:17;;;;;;;19.33;16.50;;;17.30;99.90;;;;;;5053467;28;20494;-73
2021/07/09 02:57:43;;;;;;;19.80;17.70;;;17.30;99.90;;;;;;5053383;28;20899;-73
2021/07/09 03:00:14;;;;;;;20.07;17.67;;;17.30;99.90;;;;;;5053604;28;20801;-73
2021/07/09 03:02:40;;;;;;;19.50;15.53;;;17.30;99.90;;;;;;5054451;28;20440;-73
2021/07/09 03:05:07;;;;;;;19.30;16.90;;;17.30;99.90;;;;;;5052802;28;20539;-73
2021/07/09 03:07:33;;;;;;;20.83;16.90;;;17.40;99.90;;;;;;5054081;28;20409;-73
2021/07/09 03:09:59;;;;;;;19.47;16.43;;;17.50;99.90;;;;;;5054746;28;20417;-73
2021/07/09 03:12:25;;;;;;;22.03;17.07;;;17.50;99.90;;;;;;5054540;28;20412;-73
2021/07/09 03:14:50;;;;;;;18.40;15.00;;;17.50;99.90;;;;;;5052782;28;20174;-73
2021/07/09 03:17:16;;;;;;;19.20;15.83;;;17.60;99.90;;;;;;5054300;28;20178;-73
2021/07/09 03:19:41;;;;;;;18.97;14.90;;;17.70;99.90;;;;;;5054336;28;20178;-73
2021/07/09 03:22:07;;;;;;;17.60;15.10;;;17.60;99.90;;;;;;5054429;28;20261;-73
2021/07/09 03:24:32;;;;;;;17.70;15.70;;;17.60;99.90;;;;;;5054112;28;20251;-73
2021/07/09 03:26:58;;;;;;;17.47;15.63;;;17.60;99.90;;;;;;5052485;28;20214;-73
2021/07/09 03:29:24;;;;;;;17.90;14.40;;;17.60;99.90;;;;;;5053493;28;20170;-73
2021/07/09 03:31:50;;;;;;;16.33;14.17;;;17.60;99.90;;;;;;5054391;28;20194;-73
2021/07/09 03:34:15;;;;;;;19.83;14.33;;;17.70;99.90;;;;;;5054365;28;20883;-73
2021/07/09 03:36:44;;;;;;;16.80;13.17;;;17.70;99.90;;;;;;5052816;28;20202;-73
2021/07/09 03:39:13;;;;;;;18.23;13.80;;;17.80;99.90;;;;;;5054703;28;20229;-73
2021/07/09 03:41:39;;;;;;;16.27;13.13;;;17.80;99.90;;;;;;5054989;28;20479;-73
2021/07/09 03:44:07;;;;;;;15.33;13.50;;;17.80;99.90;;;;;;5054696;28;20452;-74
2021/07/09 03:46:32;;;;;;;18.60;16.60;;;17.90;99.90;;;;;;5050696;28;20438;-73
2021/07/09 03:48:58;;;;;;;22.37;17.27;;;17.80;99.90;;;;;;5033705;28;20402;-74
2021/07/09 03:51:23;;;;;;;20.87;18.57;;;17.80;99.90;;;;;;5034059;28;20186;-74
2021/07/09 03:53:54;;;;;;;19.57;17.07;;;17.70;99.90;;;;;;5033730;28;20175;-74
2021/07/09 03:56:23;;;;;;;20.13;15.93;;;17.70;99.90;;;;;;5034022;28;20194;-74
2021/07/09 03:58:48;;;;;;;22.57;18.53;;;17.70;99.90;;;;;;5040701;28;20886;-73
2021/07/09 04:01:14;;;;;;;19.80;16.53;;;17.70;99.90;;;;;;5053697;28;20467;-74
2021/07/09 04:03:39;;;;;;;19.97;17.10;;;17.70;99.90;;;;;;5073004;28;20158;-74
2021/07/09 04:06:05;;;;;;;21.93;17.63;;;17.80;99.90;;;;;;5076658;28;20265;-74
2021/07/09 04:08:30;;;;;;;18.77;16.87;;;17.80;99.90;;;;;;5066191;28;20179;-74
2021/07/09 04:10:56;;;;;;;19.23;17.13;;;17.80;99.90;;;;;;5071996;28;20209;-73
2021/07/09 04:13:22;;;;;;;21.70;18.97;;;17.80;99.90;;;;;;5069111;28;20182;-73
2021/07/09 04:15:47;;;;;;;22.40;18.50;;;17.80;99.90;;;;;;5069454;28;20198;-72
2021/07/09 04:18:13;;;;;;;22.40;19.10;;;17.80;99.90;;;;;;5061091;28;20187;-73
2021/07/09 04:20:38;;;;;;;24.87;19.97;;;17.80;99.90;;;;;;5062937;28;20205;-73
2021/07/09 04:23:04;;;;;;;30.30;20.97;;;17.70;99.90;;;;;;5052022;28;20258;-73
2021/07/09 04:25:30;;;;;;;23.20;18.83;;;17.60;99.90;;;;;;5033878;28;20245;-72
2021/07/09 04:27:55;;;;;;;20.63;18.43;;;17.50;99.90;;;;;;5033848;28;20586;-73
2021/07/09 04:30:21;;;;;;;24.27;19.90;;;17.50;99.90;;;;;;5033622;28;20170;-73
2021/07/09 04:32:47;;;;;;;22.37;20.00;;;17.60;99.90;;;;;;5033285;28;20210;-73
2021/07/09 04:35:12;;;;;;;25.83;19.13;;;17.60;99.90;;;;;;5033226;28;20307;-70
2021/07/09 04:37:38;;;;;;;20.43;18.00;;;17.70;99.90;;;;;;5033867;28;20640;-70
2021/07/09 04:40:05;;;;;;;22.63;20.20;;;17.80;99.90;;;;;;5040058;28;20178;-71
2021/07/09 04:42:30;;;;;;;24.13;21.60;;;17.80;99.90;;;;;;5040958;28;20448;-71
2021/07/09 04:44:56;;;;;;;22.40;19.53;;;17.80;99.90;;;;;;5033341;28;20457;-71
2021/07/09 04:47:25;;;;;;;18.93;16.93;;;17.80;99.90;;;;;;5033133;28;20203;-73
2021/07/09 04:49:51;;;;;;;20.83;18.03;;;17.80;99.90;;;;;;5033243;28;20439;-73
2021/07/09 04:52:16;;;;;;;23.13;18.93;;;17.90;99.90;;;;;;5052056;28;20459;-69
2021/07/09 04:54:42;;;;;;;20.57;17.17;;;18.00;99.90;;;;;;5052614;28;20201;-69
2021/07/09 04:57:08;;;;;;;17.80;15.90;;;17.90;99.90;;;;;;5040966;28;20743;-71
2021/07/09 04:59:33;;;;;;;19.73;16.43;;;17.90;99.90;;;;;;5033269;28;20809;-67
2021/07/09 05:01:59;;;;;;;20.07;17.97;;;18.10;99.90;;;;;;5036754;28;20221;-68
2021/07/09 05:04:25;;;;;;;19.30;17.30;;;18.00;99.90;;;;;;5036554;28;20574;-68
2021/07/09 05:06:50;;;;;;;19.13;16.07;;;18.10;99.90;;;;;;5038269;28;20473;-69
2021/07/09 05:09:16;;;;;;;20.33;17.30;;;18.10;99.90;;;;;;5042073;28;20178;-69
2021/07/09 05:11:42;;;;;;;19.60;16.80;;;18.10;99.90;;;;;;5043144;28;20546;-70
2021/07/09 05:14:07;;;;;;;19.40;16.33;;;18.20;99.90;;;;;;5052351;28;20181;-68
2021/07/09 05:16:34;;;;;;;19.80;16.90;;;18.20;99.90;;;;;;5040685;28;20256;-69
2021/07/09 05:19:00;;;;;;;23.33;17.77;;;18.20;99.90;;;;;;5041316;28;20183;-68
2021/07/09 05:21:26;;;;;;;19.90;17.27;;;18.20;99.90;;;;;;5033408;28;20418;-68
2021/07/09 05:23:52;;;;;;;27.50;21.07;;;18.30;99.90;;;;;;5049421;28;20431;-69
2021/07/09 05:26:18;;;;;;;31.87;25.87;;;18.40;99.90;;;;;;5049590;28;20686;-68
2021/07/09 05:28:44;;;;;;;26.13;21.00;;;18.40;99.90;;;;;;5046623;28;20500;-68
2021/07/09 05:31:09;;;;;;;27.00;21.87;;;18.30;99.90;;;;;;5055070;28;20884;-68
2021/07/09 05:33:35;;;;;;;29.43;23.47;;;18.40;99.90;;;;;;5055578;28;20301;-69
2021/07/09 05:36:01;;;;;;;27.53;23.40;;;18.40;99.90;;;;;;5055712;28;20217;-71
2021/07/09 05:38:26;;;;;;;30.83;23.30;;;18.50;99.90;;;;;;5053070;28;20213;-74
2021/07/09 05:40:52;;;;;;;30.13;25.37;;;18.60;99.90;;;;;;5056206;28;20174;-74
2021/07/09 05:43:19;;;;;;;34.70;26.67;;;18.60;99.90;;;;;;5042714;28;20183;-73
2021/07/09 05:45:44;;;;;;;38.20;28.67;;;18.60;99.90;;;;;;5035963;28;20571;-74
